x

Buoy B01 - Western Maine Shelf (44030) Wave Buoy

3:04 - Fri 25th Jul 2014 All times are EDT. -4 hours from GMT.

  • Sig Wave height 2.0ft
  • Peak Period 8s
  • Wind
    13mph, 16mph gusts
  • Sea Temp 66°f
  • Aire Temp 67°f
  • Sea Pressure 1011.7mb
  • Buoy B01 - Western Maine Shelf
  • Buoy B01 - Western Maine Shelf

More Historic Weather Station data

Upgrade to MSW Pro to gain access to the past 30 days of data for over 8000 Wavebouys and Weather Stations around the globe.

Join Pro

Comparision Forecast

View Surf forecast
   
vie 07/25 3:04 2ft 8s 13 16 mph 1011.7mb 66f 67f
2:04 1.6ft 11s 11 13 mph 1012.1mb 66f 67f
1:04 1.3ft 11s 11
mph
1012.3mb 66f 67f
12:04 1.3ft 5s 9 11 mph 1012.9mb 66f 66f
11:04 1.3ft 8s 7 9 mph 1013.4mb 65f 65f
10:04 1.3ft 8s 7
mph
1013.3mb 65f 64f
9:04 1.6ft 11s 4
mph
1013.2mb 65f 64f
8:04 2ft 8s 4 7 mph 1013.2mb 65f 63f
7:04 2ft 8s 4 7 mph 1013mb 65f 63f
6:04 2.5ft 8s 7
mph
1012.6mb 65f 62f
5:04 2.5ft 8s 11 13 mph 1012.1mb 65f 62f
4:04 2ft 11s 9 11 mph 1011.9mb 65f 63f
3:04 1.6ft 8s 9
mph
1011.8mb 65f 64f
2:04 1.6ft 8s 9
mph
1011.7mb 65f 65f
1:04 1.6ft 8s 2 4 mph 1011.4mb 64f 64f
12:04 1.6ft 8s 2
mph
1011mb 65f 64f
jue 07/24 11:04 2ft 8s 2
mph
1010.7mb 65f 64f
10:04 1.6ft 11s 7
mph
1010.5mb 65f 64f
9:04 1.6ft 8s 7 9 mph 1009.9mb 65f 64f
8:04 1.3ft 8s 7
mph
1009.4mb 65f 65f
7:04 1.6ft 11s 4 7 mph 1009.3mb 65f 65f
6:04 2ft 8s 7 9 mph 1009.4mb 66f 65f
5:04 2ft 8s 4 7 mph 1009.2mb 65f 65f
4:04  -   -  7 9 mph 1009.3mb 65f 65f
3:04 1.6ft 4s 11
mph
1008.9mb 65f 65f
2:04 2ft 8s 9 11 mph 1009.3mb 65f 66f
1:04 1.6ft 5s 9 11 mph 1009.4mb 64f 65f
12:04 1.3ft 4s 11
mph
1009.4mb 64f 65f
11:04 2.5ft 6s 11
mph
1009.3mb 64f 65f
10:04 3ft 8s 13 16 mph 1008.6mb 64f 65f
9:04 2.5ft 8s 9 11 mph 1008.3mb 64f 64f
8:04 2.5ft 8s 13 18 mph 1008mb 64f 65f
7:04 2.5ft 11s 13 16 mph 1007.8mb 64f 65f
6:04 2.5ft 8s 2 4 mph 1007.1mb 64f 66f
5:04 2.5ft 8s 2
mph
1006.5mb 63f 64f
4:04 2ft 8s 2
mph
1006.4mb 63f 64f
3:04 2.5ft 5s 4
mph
1006.4mb 63f 64f
2:04 2.5ft 5s 4 7 mph 1006.1mb 63f 64f
1:04 2.5ft 5s 4 7 mph 1006.3mb 64f 65f
12:04 2.5ft 5s 7 9 mph 1007.4mb 64f 66f
mié 07/23 11:04 3.5ft 6s 2 4 mph 1007.4mb 64f 68f
10:04 3.5ft 5s 2 4 mph 1007.8mb 64f 69f
9:04 3.5ft 5s 7
mph
1007.3mb 64f 71f
8:04 3.5ft 8s 16
mph
1005.6mb 64f 68f
7:04 3.5ft 8s 18 20 mph 1005mb 64f 69f
6:04 4ft 8s 18 20 mph 1004.9mb 64f 69f
5:04 4ft 8s 18 20 mph 1005.3mb 65f 69f
4:04 3.5ft 8s 18 22 mph 1005.8mb 65f 70f
3:04 3ft 8s 16 18 mph 1006.6mb 65f 69f
2:04 2.5ft 4s 13 16 mph 1007.3mb 64f 68f
1:04 3ft 8s 16 18 mph 1008mb 64f 67f
12:04 2.5ft 8s 11 13 mph 1008.7mb 64f 68f
11:04 3ft 8s 11 13 mph 1009.4mb 64f 67f
10:04 3ft 8s 9 11 mph 1009.9mb 64f 67f
9:04 2.5ft 8s 11
mph
1010.4mb 64f 66f
8:04 2.5ft 8s 11 13 mph 1010.7mb 64f 66f
7:04 2.5ft 8s 11 13 mph 1010.9mb 64f 66f
6:04 2.5ft 8s 9
mph
1011.3mb 64f 66f
5:04 2.5ft 8s 9
mph
1011.4mb 64f 66f
4:04 2.5ft 8s 11 13 mph 1011.4mb 64f 66f
3:04 2.5ft 6s 11
mph
1012mb 64f 66f
2:04 2.5ft 8s 11 13 mph 1012.5mb 64f 67f
1:04 2.5ft 8s 11
mph
1012.9mb 64f 67f
12:04 2.5ft 6s 11 13 mph 1013mb 64f 67f
mar 07/22 11:04 2.5ft 8s 11
mph
1013.5mb 64f 67f
10:04 3ft 6s 9
mph
1013.9mb 64f 66f
9:04 3.5ft 6s 11 13 mph 1013.9mb 64f 66f
8:04 3.5ft 6s 13 18 mph 1013.9mb 64f 67f
7:04 2.5ft 6s 13 16 mph 1014.2mb 64f 67f
6:04 3.5ft 8s 16 18 mph 1014.6mb 65f 67f
5:04 2.5ft 8s 16 18 mph 1015.4mb 64f 67f
4:04 2.5ft 8s 16 18 mph 1016.2mb 64f 66f
3:04 2.5ft 8s 13 16 mph 1016.7mb 64f 66f
2:04 2.5ft 8s 13 16 mph 1016.9mb 64f 65f
1:04 2.5ft 8s 11 13 mph 1017.8mb 64f 65f
12:04 1.6ft 6s 11 13 mph 1018.3mb 64f 64f
11:04 2.5ft 6s 9 11 mph 1018.9mb 64f 64f
10:04 2.5ft 8s 9
mph
1018.6mb 63f 63f
9:04 2.5ft 6s 7 9 mph 1018.9mb 63f 63f
8:04 2.5ft 6s 7 9 mph 1019.2mb 63f 63f
7:04 2.5ft 6s 7
mph
1019.2mb 63f 63f
6:04 3ft 6s 9
mph
1019.2mb 63f 62f
5:04 2.5ft 8s 7 9 mph 1019.3mb 63f 62f
4:04 2.5ft 8s 7
mph
1019.2mb 63f 62f
3:04 2.5ft 6s 4
mph
1019.4mb 63f 62f
2:04 2ft 6s 7
mph
1019.7mb 63f 63f
1:04 2.5ft 8s 7 9 mph 1020mb 63f 63f
12:04 2.5ft 8s 4 7 mph 1020.2mb 63f 62f
lun 07/21 11:04 2.5ft 8s 2 4 mph 1020.4mb 63f 62f
10:04 2.5ft 8s 4
mph
1020.4mb 64f 62f
9:04 2.5ft 8s 4
mph
1020.3mb 63f 61f